createdAt,value
2019-04-10T00:00:14.972Z,92.60
2019-04-10T00:00:55.077Z,92.50
2019-04-10T00:01:34.186Z,92.50
2019-04-10T00:02:09.101Z,92.50
2019-04-10T00:02:43.945Z,92.70
2019-04-10T00:03:28.137Z,92.80
2019-04-10T00:03:54.826Z,92.80
2019-04-10T00:04:29.616Z,92.90
2019-04-10T00:05:07.615Z,92.90
2019-04-10T00:05:42.623Z,93.00
2019-04-10T00:06:18.564Z,92.90
2019-04-10T00:06:55.376Z,92.90
2019-04-10T00:07:29.652Z,92.90
2019-04-10T00:08:04.246Z,92.90
2019-04-10T00:08:38.851Z,92.90
2019-04-10T00:09:13.520Z,93.00
2019-04-10T00:09:48.108Z,93.00
2019-04-10T00:10:23.588Z,93.00
2019-04-10T00:10:58.566Z,93.00
2019-04-10T00:11:33.185Z,93.10
2019-04-10T00:12:09.445Z,93.00
2019-04-10T00:12:44.104Z,93.00
2019-04-10T00:13:18.634Z,93.00
2019-04-10T00:13:55.402Z,92.90
2019-04-10T00:14:29.917Z,92.90
2019-04-10T00:15:05.320Z,92.90
2019-04-10T00:15:40.260Z,92.90
2019-04-10T00:16:15.800Z,92.80
2019-04-10T00:16:50.613Z,92.80
2019-04-10T00:17:25.210Z,92.80
2019-04-10T00:17:59.912Z,92.80
2019-04-10T00:18:34.524Z,92.70
2019-04-10T00:19:09.044Z,92.60
2019-04-10T00:19:43.780Z,92.50
2019-04-10T00:20:18.489Z,92.50
2019-04-10T00:20:53.215Z,92.60
2019-04-10T00:21:27.863Z,92.60
2019-04-10T00:22:02.850Z,92.60
2019-04-10T00:22:38.163Z,92.70
2019-04-10T00:23:13.149Z,92.80
2019-04-10T00:23:47.880Z,92.80
2019-04-10T00:24:22.472Z,92.80
2019-04-10T00:24:57.067Z,92.80
2019-04-10T00:25:33.104Z,92.90
2019-04-10T00:26:07.717Z,92.80
2019-04-10T00:26:42.328Z,92.80
2019-04-10T00:27:16.855Z,93.00
2019-04-10T00:27:51.454Z,92.70
2019-04-10T00:28:26.065Z,92.80
2019-04-10T00:29:00.708Z,92.70
2019-04-10T00:29:36.249Z,92.80
2019-04-10T00:30:11.259Z,92.80
2019-04-10T00:30:45.779Z,92.80
2019-04-10T00:31:20.712Z,92.90
2019-04-10T00:31:56.302Z,92.90
2019-04-10T00:32:34.190Z,92.90
2019-04-10T00:33:08.840Z,92.90
2019-04-10T00:33:43.445Z,92.90
2019-04-10T00:34:18.044Z,93.00
2019-04-10T00:34:52.659Z,92.90
2019-04-10T00:35:27.620Z,92.90
2019-04-10T00:36:02.222Z,92.80
2019-04-10T00:36:37.352Z,92.80
2019-04-10T00:37:21.829Z,92.80
2019-04-10T00:37:49.171Z,92.80
2019-04-10T00:38:24.122Z,92.70
2019-04-10T00:38:58.793Z,92.80
2019-04-10T00:39:33.380Z,92.80
2019-04-10T00:40:08.815Z,92.90
2019-04-10T00:40:43.795Z,92.90
2019-04-10T00:41:18.415Z,92.80
2019-04-10T00:41:56.769Z,92.70
2019-04-10T00:42:31.536Z,92.60
2019-04-10T00:43:06.606Z,92.60
2019-04-10T00:43:41.590Z,92.60
2019-04-10T00:44:16.430Z,92.70
2019-04-10T00:44:51.985Z,92.70
2019-04-10T00:45:27.151Z,92.70
2019-04-10T00:46:02.146Z,92.60
2019-04-10T00:46:36.667Z,92.50
2019-04-10T00:47:11.260Z,92.70
2019-04-10T00:47:45.855Z,92.70
2019-04-10T00:48:20.653Z,92.70
2019-04-10T00:48:55.160Z,92.80
2019-04-10T00:49:29.750Z,92.80
2019-04-10T00:50:06.417Z,92.80
2019-04-10T00:50:41.117Z,92.80
2019-04-10T00:51:15.743Z,93.10
2019-04-10T00:51:50.289Z,92.80
2019-04-10T00:52:25.025Z,92.80
2019-04-10T00:52:59.653Z,92.80
2019-04-10T00:53:34.916Z,92.80
2019-04-10T00:54:09.866Z,92.90
2019-04-10T00:54:44.447Z,92.90
2019-04-10T00:55:19.688Z,92.80
2019-04-10T00:55:54.399Z,92.80
2019-04-10T00:56:29.042Z,92.80
2019-04-10T00:57:03.682Z,92.80
2019-04-10T00:57:39.242Z,93.10
2019-04-10T00:58:14.131Z,93.00
2019-04-10T00:58:49.026Z,92.90
2019-04-10T00:59:24.122Z,92.90
2019-04-10T00:59:58.921Z,93.00
2019-04-10T01:00:36.267Z,93.00
2019-04-10T01:01:09.764Z,93.00
2019-04-10T01:01:44.338Z,93.10
2019-04-10T01:02:18.877Z,93.10
2019-04-10T01:02:53.425Z,93.00
2019-04-10T01:03:35.800Z,93.10
2019-04-10T01:04:10.613Z,93.20
2019-04-10T01:04:45.353Z,93.20
2019-04-10T01:05:20.448Z,93.20
2019-04-10T01:05:55.475Z,93.30
2019-04-10T01:06:30.386Z,93.20
2019-04-10T01:07:05.077Z,93.10
2019-04-10T01:07:42.519Z,93.10
2019-04-10T01:08:16.124Z,92.90
2019-04-10T01:08:51.032Z,92.80
2019-04-10T01:09:25.710Z,92.80
2019-04-10T01:10:00.317Z,92.80
2019-04-10T01:10:35.106Z,92.80
2019-04-10T01:11:10.670Z,92.70
2019-04-10T01:11:45.662Z,92.70
2019-04-10T01:12:20.336Z,92.70
2019-04-10T01:12:55.216Z,92.80
2019-04-10T01:13:29.832Z,92.70
2019-04-10T01:14:05.400Z,92.70
2019-04-10T01:14:40.136Z,92.80
2019-04-10T01:15:14.715Z,92.70
2019-04-10T01:15:49.309Z,92.60
2019-04-10T01:16:23.832Z,92.60
2019-04-10T01:16:58.348Z,92.50
2019-04-10T01:17:33.139Z,92.50
2019-04-10T01:18:07.814Z,92.50
2019-04-10T01:18:43.532Z,92.40
2019-04-10T01:19:18.201Z,92.60
2019-04-10T01:19:52.992Z,92.50
2019-04-10T01:20:27.594Z,92.50
2019-04-10T01:21:02.548Z,92.60
2019-04-10T01:21:37.316Z,92.60
2019-04-10T01:22:12.164Z,92.60
2019-04-10T01:22:47.616Z,92.60
2019-04-10T01:23:22.591Z,92.70
2019-04-10T01:23:57.373Z,92.80
2019-04-10T01:24:33.364Z,92.80
2019-04-10T01:25:08.364Z,92.70
2019-04-10T01:25:42.997Z,92.70
2019-04-10T01:26:17.543Z,92.60
2019-04-10T01:26:52.138Z,92.50
2019-04-10T01:27:27.700Z,92.60
2019-04-10T01:28:04.679Z,92.60
2019-04-10T01:28:39.285Z,92.70
2019-04-10T01:29:13.915Z,92.70
2019-04-10T01:29:49.386Z,92.70
2019-04-10T01:30:24.402Z,92.70
2019-04-10T01:30:59.134Z,92.70
2019-04-10T01:31:33.844Z,92.60
2019-04-10T01:32:08.448Z,92.60
2019-04-10T01:32:43.946Z,92.50
2019-04-10T01:33:18.703Z,92.50
2019-04-10T01:33:53.232Z,92.80
2019-04-10T01:34:28.050Z,92.50
2019-04-10T01:35:02.664Z,92.50
2019-04-10T01:35:38.285Z,92.40
2019-04-10T01:36:13.126Z,92.50
2019-04-10T01:36:48.007Z,92.50
2019-04-10T01:37:22.946Z,92.40
2019-04-10T01:38:00.986Z,92.40
2019-04-10T01:38:33.801Z,92.70
2019-04-10T01:39:10.459Z,92.50
2019-04-10T01:39:45.157Z,92.60
2019-04-10T01:40:20.712Z,92.70
2019-04-10T01:40:55.975Z,92.70
2019-04-10T01:41:30.566Z,92.70
2019-04-10T01:42:06.174Z,92.70
2019-04-10T01:42:40.909Z,92.60
2019-04-10T01:43:18.511Z,92.60
2019-04-10T01:43:52.030Z,92.70
2019-04-10T01:44:27.115Z,92.60
2019-04-10T01:45:01.643Z,92.60
2019-04-10T01:45:36.442Z,92.60
2019-04-10T01:46:11.037Z,92.70
2019-04-10T01:46:46.503Z,92.50
2019-04-10T01:47:21.421Z,92.60
2019-04-10T01:47:56.008Z,92.30
2019-04-10T01:48:30.558Z,92.20
2019-04-10T01:49:05.306Z,92.30
2019-04-10T01:49:39.935Z,92.20
2019-04-10T01:50:14.575Z,92.30
2019-04-10T01:50:49.139Z,92.30
2019-04-10T01:51:23.658Z,92.30
2019-04-10T01:51:58.183Z,92.20
2019-04-10T01:52:33.250Z,92.10
2019-04-10T01:53:07.909Z,92.10
2019-04-10T01:53:42.433Z,92.10
2019-04-10T01:54:17.287Z,92.10
2019-04-10T01:54:51.909Z,92.20
2019-04-10T01:55:29.640Z,92.20
2019-04-10T01:56:03.080Z,92.30
2019-04-10T01:56:37.775Z,92.30
2019-04-10T01:57:13.213Z,92.30
2019-04-10T01:57:48.416Z,92.30
2019-04-10T01:58:23.778Z,92.40
2019-04-10T01:58:59.254Z,92.40
2019-04-10T01:59:35.959Z,92.40
2019-04-10T02:00:13.209Z,92.30
2019-04-10T02:00:52.085Z,92.30
2019-04-10T02:01:31.049Z,92.40
2019-04-10T02:02:16.881Z,92.40
2019-04-10T02:02:52.441Z,92.50
2019-04-10T02:03:27.730Z,92.40
2019-04-10T02:04:02.687Z,92.50
2019-04-10T02:04:37.340Z,92.40
2019-04-10T02:05:12.290Z,92.50
2019-04-10T02:05:47.153Z,92.50
2019-04-10T02:06:21.762Z,92.50
2019-04-10T02:06:56.346Z,92.60
2019-04-10T02:07:31.908Z,92.50
2019-04-10T02:08:10.338Z,92.50
2019-04-10T02:08:43.021Z,92.40
2019-04-10T02:09:17.634Z,92.40
2019-04-10T02:09:52.221Z,92.40
2019-04-10T02:10:27.914Z,92.40
2019-04-10T02:11:02.828Z,92.40
2019-04-10T02:11:37.728Z,92.50
2019-04-10T02:12:12.534Z,92.30
2019-04-10T02:12:47.258Z,92.30
2019-04-10T02:13:21.961Z,92.30
2019-04-10T02:13:56.839Z,92.20
2019-04-10T02:14:32.139Z,92.20
2019-04-10T02:15:11.194Z,92.10
2019-04-10T02:15:44.017Z,92.10
2019-04-10T02:16:18.846Z,92.10
2019-04-10T02:16:53.444Z,92.10
2019-04-10T02:17:28.564Z,92.00
2019-04-10T02:18:03.314Z,92.10
2019-04-10T02:18:37.999Z,92.10
2019-04-10T02:19:12.542Z,92.10
2019-04-10T02:19:48.178Z,92.40
2019-04-10T02:20:23.009Z,92.10
2019-04-10T02:20:57.558Z,92.00
2019-04-10T02:21:32.078Z,92.00
2019-04-10T02:22:06.675Z,91.90
2019-04-10T02:22:41.240Z,91.80
2019-04-10T02:23:16.266Z,91.80
2019-04-10T02:23:50.856Z,91.80
2019-04-10T02:24:25.443Z,91.90
2019-04-10T02:24:59.968Z,91.90
2019-04-10T02:25:34.492Z,92.00
2019-04-10T02:26:09.470Z,92.10
2019-04-10T02:26:44.087Z,92.10
2019-04-10T02:27:18.701Z,92.10
2019-04-10T02:27:54.328Z,92.10
2019-04-10T02:28:29.505Z,92.00
2019-04-10T02:29:04.098Z,92.00
2019-04-10T02:29:39.880Z,92.00
2019-04-10T02:30:18.885Z,91.90
2019-04-10T02:30:51.043Z,92.00
2019-04-10T02:31:26.501Z,92.00
2019-04-10T02:32:02.710Z,92.00
2019-04-10T02:32:39.434Z,92.00
2019-04-10T02:33:15.919Z,91.90
2019-04-10T02:33:51.751Z,91.80
2019-04-10T02:34:26.498Z,91.80
2019-04-10T02:35:01.315Z,91.60
2019-04-10T02:35:36.202Z,91.60
2019-04-10T02:36:12.850Z,91.70
2019-04-10T02:36:48.873Z,91.60
2019-04-10T02:37:25.058Z,91.60
2019-04-10T02:38:18.549Z,91.60
2019-04-10T02:38:52.585Z,91.50
2019-04-10T02:39:23.932Z,91.50
2019-04-10T02:39:52.897Z,91.40
2019-04-10T02:40:25.558Z,91.50
2019-04-10T02:41:01.665Z,91.50
2019-04-10T02:41:38.419Z,91.40
2019-04-10T02:42:14.259Z,91.40
2019-04-10T02:42:49.360Z,91.30
2019-04-10T02:43:24.101Z,91.40
2019-04-10T02:43:59.960Z,91.30
2019-04-10T02:44:35.534Z,91.30
2019-04-10T02:45:12.659Z,91.30
2019-04-10T02:45:49.210Z,91.30
2019-04-10T02:46:25.077Z,91.40
2019-04-10T02:46:59.819Z,91.50
2019-04-10T02:47:34.696Z,91.50
2019-04-10T02:48:10.082Z,91.60
2019-04-10T02:48:45.670Z,91.50
2019-04-10T02:49:20.415Z,91.60
2019-04-10T02:49:56.552Z,91.50
2019-04-10T02:50:31.418Z,91.50
2019-04-10T02:51:07.528Z,91.50
2019-04-10T02:51:43.253Z,91.50
2019-04-10T02:52:17.974Z,91.50
2019-04-10T02:52:52.570Z,91.50
2019-04-10T02:53:27.664Z,91.50
2019-04-10T02:54:02.610Z,91.40
2019-04-10T02:54:37.621Z,91.40
2019-04-10T02:55:33.155Z,91.40
2019-04-10T02:56:07.899Z,91.30
2019-04-10T02:56:43.408Z,91.20
2019-04-10T02:57:19.475Z,91.20
2019-04-10T02:57:56.360Z,91.20
2019-04-10T02:58:32.272Z,91.20
2019-04-10T02:59:07.365Z,91.20
2019-04-10T02:59:43.123Z,91.20
2019-04-10T03:00:20.129Z,91.10
2019-04-10T03:00:56.214Z,91.00
2019-04-10T03:01:31.581Z,91.00
2019-04-10T03:02:06.557Z,91.00
2019-04-10T03:02:42.000Z,90.90
2019-04-10T03:03:18.068Z,90.90
2019-04-10T03:03:54.792Z,90.90
2019-04-10T03:04:30.947Z,90.90
2019-04-10T03:05:07.134Z,90.90
2019-04-10T03:05:44.660Z,91.00
2019-04-10T03:06:20.590Z,91.00
2019-04-10T03:06:55.699Z,91.00
2019-04-10T03:07:31.976Z,91.10
2019-04-10T03:08:07.484Z,91.10
2019-04-10T03:08:59.246Z,91.20
2019-04-10T03:09:37.066Z,91.20
2019-04-10T03:10:12.007Z,91.20
2019-04-10T03:10:41.095Z,91.20
2019-04-10T03:11:11.646Z,91.20
2019-04-10T03:11:45.835Z,91.20
2019-04-10T03:12:21.896Z,91.10
2019-04-10T03:12:58.561Z,91.20
2019-04-10T03:13:33.823Z,91.10
2019-04-10T03:14:10.423Z,91.10
2019-04-10T03:14:47.329Z,91.10
2019-04-10T03:15:21.105Z,91.10
2019-04-10T03:15:55.915Z,91.10
2019-04-10T03:16:31.219Z,91.10
2019-04-10T03:17:06.035Z,91.10
2019-04-10T03:17:41.974Z,91.10
2019-04-10T03:18:16.843Z,91.10
2019-04-10T03:18:51.431Z,91.10
2019-04-10T03:19:25.967Z,91.00
2019-04-10T03:20:00.568Z,91.10
2019-04-10T03:20:35.355Z,91.40
2019-04-10T03:21:11.006Z,91.10
2019-04-10T03:21:47.095Z,91.10
2019-04-10T03:22:22.850Z,91.00
2019-04-10T03:22:58.843Z,91.00
2019-04-10T03:23:33.637Z,90.80
2019-04-10T03:24:08.367Z,90.70
2019-04-10T03:24:43.006Z,90.50
2019-04-10T03:25:18.362Z,90.00
2019-04-10T03:25:54.074Z,89.70
2019-04-10T03:26:29.805Z,88.90
2019-04-10T03:27:04.580Z,87.80
2019-04-10T03:27:39.190Z,87.70
2019-04-10T03:28:14.565Z,87.10
2019-04-10T03:28:49.435Z,86.20
2019-04-10T03:29:24.266Z,85.90
2019-04-10T03:29:58.879Z,85.70
2019-04-10T03:30:34.625Z,85.80
2019-04-10T03:31:10.596Z,85.70
2019-04-10T03:31:47.508Z,85.20
2019-04-10T03:32:48.030Z,85.00
2019-04-10T03:33:41.818Z,84.50
2019-04-10T03:34:26.179Z,84.40
2019-04-10T03:35:02.869Z,83.70
2019-04-10T03:35:41.718Z,84.00
2019-04-10T03:36:16.302Z,83.90
2019-04-10T03:36:51.760Z,83.90
2019-04-10T03:37:26.492Z,84.30
2019-04-10T03:38:01.558Z,83.50
2019-04-10T03:38:49.450Z,84.20
2019-04-10T03:39:13.246Z,83.10
2019-04-10T03:39:48.936Z,83.10
2019-04-10T03:40:23.762Z,83.30
2019-04-10T03:40:58.394Z,83.30
2019-04-10T03:41:33.213Z,83.50
2019-04-10T03:42:08.526Z,83.70
2019-04-10T03:42:43.405Z,83.60
2019-04-10T03:43:17.995Z,83.60
2019-04-10T03:43:52.541Z,83.50
2019-04-10T03:44:27.153Z,83.60
2019-04-10T03:45:01.748Z,83.70
2019-04-10T03:45:36.936Z,83.60
2019-04-10T03:46:11.649Z,83.50
2019-04-10T03:46:46.946Z,83.50
2019-04-10T03:47:21.641Z,83.40
2019-04-10T03:47:56.246Z,83.00
2019-04-10T03:48:31.376Z,83.00
2019-04-10T03:49:05.979Z,83.10
2019-04-10T03:49:40.551Z,83.00
2019-04-10T03:50:16.122Z,83.00
2019-04-10T03:50:52.080Z,82.70
2019-04-10T03:51:26.783Z,82.60
2019-04-10T03:52:01.391Z,82.60
2019-04-10T03:52:36.059Z,82.50
2019-04-10T03:53:10.761Z,82.40
2019-04-10T03:53:45.355Z,82.30
2019-04-10T03:54:20.764Z,82.20
2019-04-10T03:54:56.506Z,82.10
2019-04-10T03:55:32.644Z,82.00
2019-04-10T03:56:07.639Z,82.10
2019-04-10T03:56:42.329Z,82.10
2019-04-10T03:57:17.011Z,82.10
2019-04-10T03:57:51.984Z,81.90
2019-04-10T03:58:27.324Z,82.00
2019-04-10T03:59:06.333Z,82.30
2019-04-10T03:59:42.062Z,82.40
2019-04-10T04:00:18.104Z,82.40
2019-04-10T04:00:52.941Z,82.40
2019-04-10T04:01:27.601Z,82.30
2019-04-10T04:02:03.102Z,82.30
2019-04-10T04:02:38.077Z,82.40
2019-04-10T04:03:12.811Z,82.60
2019-04-10T04:03:47.448Z,82.60
2019-04-10T04:04:22.119Z,82.50
2019-04-10T04:04:56.687Z,82.40
2019-04-10T04:05:32.663Z,82.20
2019-04-10T04:06:07.719Z,82.40
2019-04-10T04:06:42.327Z,82.30
2019-04-10T04:07:17.518Z,82.40
2019-04-10T04:07:52.116Z,82.50
2019-04-10T04:08:27.727Z,82.50
2019-04-10T04:09:07.771Z,82.40
2019-04-10T04:09:39.753Z,82.40
2019-04-10T04:10:14.395Z,82.40
2019-04-10T04:10:49.160Z,82.30
2019-04-10T04:11:23.909Z,82.40
2019-04-10T04:11:58.769Z,82.20
2019-04-10T04:12:33.362Z,82.00
2019-04-10T04:13:11.121Z,81.70
2019-04-10T04:13:45.883Z,81.60
2019-04-10T04:14:20.614Z,81.30
2019-04-10T04:14:55.155Z,81.30
2019-04-10T04:15:30.329Z,81.40
2019-04-10T04:16:05.423Z,81.50
2019-04-10T04:16:40.086Z,81.50
2019-04-10T04:17:15.583Z,81.50
2019-04-10T04:17:50.613Z,81.50
2019-04-10T04:18:25.351Z,81.40
2019-04-10T04:18:59.993Z,81.40
2019-04-10T04:19:34.599Z,81.40
2019-04-10T04:20:09.162Z,81.40
2019-04-10T04:20:43.771Z,81.10
2019-04-10T04:21:19.457Z,81.00
2019-04-10T04:21:54.378Z,80.90
2019-04-10T04:22:28.978Z,80.80
2019-04-10T04:23:03.651Z,80.90
2019-04-10T04:23:38.906Z,80.90
2019-04-10T04:24:14.090Z,80.80
2019-04-10T04:24:52.384Z,80.00
2019-04-10T04:25:27.892Z,80.40
2019-04-10T04:26:03.070Z,80.60
2019-04-10T04:26:37.798Z,80.50
2019-04-10T04:27:13.246Z,80.60
2019-04-10T04:27:47.990Z,80.70
2019-04-10T04:28:23.447Z,80.50
2019-04-10T04:28:59.923Z,80.50
2019-04-10T04:29:34.650Z,80.50
2019-04-10T04:30:10.500Z,80.40
2019-04-10T04:30:45.678Z,80.30
2019-04-10T04:31:20.346Z,80.20
2019-04-10T04:31:54.863Z,80.00
2019-04-10T04:32:31.492Z,79.90
2019-04-10T04:33:06.664Z,79.80
2019-04-10T04:33:41.350Z,79.90
2019-04-10T04:34:15.892Z,80.00
2019-04-10T04:34:50.494Z,80.00
2019-04-10T04:35:25.683Z,80.00
2019-04-10T04:36:00.290Z,80.00
2019-04-10T04:36:35.210Z,79.90
2019-04-10T04:37:10.054Z,79.90
2019-04-10T04:37:44.617Z,80.00
2019-04-10T04:38:19.982Z,80.20
2019-04-10T04:38:54.676Z,80.00
2019-04-10T04:39:30.497Z,80.20
2019-04-10T04:40:06.663Z,80.20
2019-04-10T04:40:42.049Z,80.30
2019-04-10T04:41:17.420Z,80.30
2019-04-10T04:41:52.144Z,79.80
2019-04-10T04:42:26.770Z,79.80
2019-04-10T04:43:01.301Z,79.90
2019-04-10T04:43:36.960Z,79.80
2019-04-10T04:44:12.399Z,79.80
2019-04-10T04:44:47.790Z,79.70
2019-04-10T04:45:23.487Z,79.70
2019-04-10T04:45:59.054Z,79.70
2019-04-10T04:46:34.600Z,79.60
2019-04-10T04:47:09.702Z,79.70
2019-04-10T04:47:44.513Z,79.70
2019-04-10T04:48:19.513Z,79.60
2019-04-10T04:48:54.280Z,79.50
2019-04-10T04:49:28.989Z,79.40
2019-04-10T04:50:05.498Z,79.30
2019-04-10T04:50:40.205Z,79.40
2019-04-10T04:51:15.442Z,79.50
2019-04-10T04:51:50.571Z,79.40
2019-04-10T04:52:25.854Z,79.20
2019-04-10T04:53:00.554Z,79.40
2019-04-10T04:53:35.141Z,79.20
2019-04-10T04:54:09.752Z,79.00
2019-04-10T04:54:44.267Z,79.10
2019-04-10T04:55:19.780Z,79.20
2019-04-10T04:55:55.260Z,79.30
2019-04-10T04:56:30.031Z,78.50
2019-04-10T04:57:05.000Z,79.00
2019-04-10T04:57:41.046Z,79.00
2019-04-10T04:58:16.029Z,79.20
2019-04-10T04:58:51.709Z,79.10
2019-04-10T04:59:26.391Z,79.10
2019-04-10T05:00:01.181Z,79.20
2019-04-10T05:00:35.843Z,79.30
2019-04-10T05:01:10.551Z,79.30
2019-04-10T05:01:45.282Z,79.40
2019-04-10T05:02:20.012Z,79.40
2019-04-10T05:02:55.717Z,79.50
2019-04-10T05:03:30.400Z,79.40
2019-04-10T05:04:05.001Z,79.40
2019-04-10T05:04:39.748Z,78.70
2019-04-10T05:05:14.373Z,79.00
2019-04-10T05:05:49.963Z,79.00
2019-04-10T05:06:24.727Z,79.00
2019-04-10T05:06:59.917Z,79.10
2019-04-10T05:07:35.498Z,78.90
2019-04-10T05:08:10.144Z,78.90
2019-04-10T05:08:44.664Z,79.00
2019-04-10T05:09:29.846Z,79.10
2019-04-10T05:09:59.949Z,79.10
2019-04-10T05:10:35.686Z,79.20
2019-04-10T05:11:10.262Z,79.30
2019-04-10T05:11:44.871Z,79.00
2019-04-10T05:12:20.239Z,79.00
2019-04-10T05:12:55.004Z,78.80
2019-04-10T05:13:31.204Z,79.70
2019-04-10T05:14:06.726Z,79.30
2019-04-10T05:14:41.890Z,79.40
2019-04-10T05:15:18.420Z,80.00
2019-04-10T05:15:53.422Z,79.60
2019-04-10T05:16:27.982Z,79.50
2019-04-10T05:17:02.535Z,79.60
2019-04-10T05:17:37.242Z,79.50
2019-04-10T05:18:12.450Z,79.40
2019-04-10T05:18:47.699Z,79.50
2019-04-10T05:19:22.423Z,79.50
2019-04-10T05:19:57.039Z,79.50
2019-04-10T05:20:41.196Z,79.30
2019-04-10T05:21:08.522Z,79.30
2019-04-10T05:21:43.650Z,79.40
2019-04-10T05:22:18.772Z,79.50
2019-04-10T05:22:54.798Z,79.50
2019-04-10T05:23:30.902Z,79.90
2019-04-10T05:24:05.990Z,80.10
2019-04-10T05:24:40.693Z,80.10
2019-04-10T05:25:15.298Z,80.20
2019-04-10T05:25:49.895Z,80.40
2019-04-10T05:26:25.639Z,80.30
2019-04-10T05:27:01.196Z,80.50
2019-04-10T05:27:35.877Z,80.40
2019-04-10T05:28:11.266Z,80.40
2019-04-10T05:28:46.656Z,80.50
2019-04-10T05:29:21.735Z,80.40
2019-04-10T05:29:56.334Z,80.40
2019-04-10T05:30:31.354Z,80.20
2019-04-10T05:31:06.810Z,79.70
2019-04-10T05:31:42.623Z,79.70
2019-04-10T05:32:17.851Z,79.70
2019-04-10T05:32:52.574Z,79.60
2019-04-10T05:33:27.191Z,79.40
2019-04-10T05:34:01.805Z,79.00
2019-04-10T05:34:36.435Z,79.10
2019-04-10T05:35:12.786Z,79.20
2019-04-10T05:35:47.322Z,79.00
2019-04-10T05:36:21.907Z,79.10
2019-04-10T05:36:56.861Z,78.50
2019-04-10T05:37:31.673Z,78.90
2019-04-10T05:38:06.373Z,78.80
2019-04-10T05:38:41.871Z,78.80
2019-04-10T05:39:16.868Z,78.70
2019-04-10T05:39:52.633Z,78.80
2019-04-10T05:40:27.998Z,78.50
2019-04-10T05:41:02.890Z,78.30
2019-04-10T05:41:37.861Z,78.50
2019-04-10T05:42:12.750Z,78.60
2019-04-10T05:42:47.380Z,78.60
2019-04-10T05:43:22.029Z,78.70
2019-04-10T05:43:56.737Z,78.60
2019-04-10T05:44:31.887Z,78.70
2019-04-10T05:45:14.848Z,78.70
2019-04-10T05:45:50.606Z,78.90
2019-04-10T05:46:25.282Z,78.80
2019-04-10T05:46:59.800Z,78.90
2019-04-10T05:47:34.559Z,78.90
2019-04-10T05:48:09.202Z,78.80
2019-04-10T05:48:44.096Z,78.50
2019-04-10T05:49:18.901Z,78.40
2019-04-10T05:49:53.439Z,78.50
2019-04-10T05:50:28.047Z,78.70
2019-04-10T05:51:04.766Z,78.70
2019-04-10T05:51:39.561Z,78.50
2019-04-10T05:52:14.712Z,78.50
2019-04-10T05:52:49.353Z,78.50
2019-04-10T05:53:24.631Z,78.40
2019-04-10T05:54:00.100Z,77.90
2019-04-10T05:54:35.323Z,78.10
2019-04-10T05:55:10.463Z,78.10
2019-04-10T05:55:45.274Z,78.00
2019-04-10T05:56:20.712Z,78.00
2019-04-10T05:56:55.805Z,77.70
2019-04-10T05:57:30.818Z,77.90
2019-04-10T05:58:05.532Z,77.70
2019-04-10T05:58:40.879Z,78.00
2019-04-10T05:59:16.394Z,77.90
2019-04-10T05:59:52.239Z,77.80
2019-04-10T06:00:27.227Z,77.70
2019-04-10T06:01:03.750Z,77.90
2019-04-10T06:01:40.978Z,78.50
2019-04-10T06:02:14.544Z,77.80
2019-04-10T06:02:50.184Z,77.90
2019-04-10T06:03:24.863Z,77.90
2019-04-10T06:03:59.485Z,78.00
2019-04-10T06:04:34.098Z,77.90
2019-04-10T06:05:09.754Z,77.80
2019-04-10T06:05:44.530Z,77.70
2019-04-10T06:06:20.800Z,77.80
2019-04-10T06:06:55.343Z,77.80
2019-04-10T06:07:29.978Z,77.80
2019-04-10T06:08:05.715Z,77.80
2019-04-10T06:08:41.192Z,77.60
2019-04-10T06:09:16.324Z,77.60
2019-04-10T06:09:55.913Z,77.60
2019-04-10T06:10:27.208Z,77.70
2019-04-10T06:11:01.824Z,77.70
2019-04-10T06:11:37.337Z,77.80
2019-04-10T06:12:12.082Z,77.90
2019-04-10T06:12:46.801Z,78.00
2019-04-10T06:13:21.373Z,77.80
2019-04-10T06:13:56.921Z,77.90
2019-04-10T06:14:32.397Z,77.90
2019-04-10T06:15:07.941Z,77.70
2019-04-10T06:15:43.400Z,77.50
2019-04-10T06:16:18.019Z,77.30
2019-04-10T06:16:53.095Z,77.50
2019-04-10T06:17:27.727Z,77.40
2019-04-10T06:18:02.833Z,77.30
2019-04-10T06:18:37.592Z,77.30
2019-04-10T06:19:13.148Z,77.30
2019-04-10T06:19:48.877Z,77.30
2019-04-10T06:20:23.571Z,77.20
2019-04-10T06:20:58.819Z,77.10
2019-04-10T06:21:33.487Z,77.00
2019-04-10T06:22:09.647Z,77.10
2019-04-10T06:22:45.433Z,77.20
2019-04-10T06:23:20.209Z,77.10
2019-04-10T06:23:56.702Z,77.10
2019-04-10T06:24:32.123Z,77.00
2019-04-10T06:25:09.292Z,76.70
2019-04-10T06:25:43.884Z,76.60
2019-04-10T06:26:19.896Z,76.70
2019-04-10T06:26:54.682Z,75.80
2019-04-10T06:27:29.282Z,76.40
2019-04-10T06:28:05.191Z,76.50
2019-04-10T06:28:40.101Z,76.60
2019-04-10T06:29:14.976Z,77.00
2019-04-10T06:29:49.513Z,77.20
2019-04-10T06:30:24.106Z,77.20
2019-04-10T06:30:59.102Z,77.30
2019-04-10T06:31:33.897Z,77.00
2019-04-10T06:32:09.504Z,77.10
2019-04-10T06:32:45.333Z,77.30
2019-04-10T06:33:20.202Z,77.30
2019-04-10T06:33:54.820Z,77.50
2019-04-10T06:34:30.153Z,77.70
2019-04-10T06:35:07.927Z,77.50
2019-04-10T06:35:42.708Z,77.30
2019-04-10T06:36:17.516Z,77.20
2019-04-10T06:36:53.389Z,76.80
2019-04-10T06:37:28.373Z,76.80
2019-04-10T06:38:03.058Z,76.30
2019-04-10T06:38:37.674Z,76.70
2019-04-10T06:39:12.936Z,77.00
2019-04-10T06:39:47.591Z,77.20
2019-04-10T06:40:24.244Z,77.30
2019-04-10T06:40:58.417Z,77.20
2019-04-10T06:41:33.064Z,76.90
2019-04-10T06:42:08.629Z,76.60
2019-04-10T06:42:48.550Z,76.50
2019-04-10T06:43:19.621Z,76.60
2019-04-10T06:43:55.215Z,76.50
2019-04-10T06:44:30.162Z,76.50
2019-04-10T06:45:07.282Z,76.50
2019-04-10T06:45:42.018Z,76.50
2019-04-10T06:46:16.814Z,76.30
2019-04-10T06:46:52.916Z,76.30
2019-04-10T06:47:28.651Z,76.30
2019-04-10T06:48:03.379Z,76.10
2019-04-10T06:48:38.460Z,76.10
2019-04-10T06:49:13.155Z,76.30
2019-04-10T06:49:47.876Z,76.10
2019-04-10T06:50:23.139Z,76.10
2019-04-10T06:50:58.252Z,76.10
2019-04-10T06:51:33.526Z,76.10
2019-04-10T06:52:08.194Z,75.90
2019-04-10T06:52:43.006Z,75.80
2019-04-10T06:53:18.699Z,75.70
2019-04-10T06:54:01.797Z,75.80
2019-04-10T06:54:29.653Z,75.90
2019-04-10T06:55:05.976Z,76.00
2019-04-10T06:55:40.672Z,76.00
2019-04-10T06:56:15.278Z,76.10
2019-04-10T06:56:50.326Z,76.10
2019-04-10T06:57:25.006Z,76.10
2019-04-10T06:58:00.747Z,76.00
2019-04-10T06:58:36.028Z,75.90
2019-04-10T06:59:11.056Z,76.00
2019-04-10T06:59:46.959Z,76.00
2019-04-10T07:00:22.899Z,76.10
2019-04-10T07:00:58.073Z,76.10
2019-04-10T07:01:40.526Z,75.80
2019-04-10T07:02:21.779Z,75.50
2019-04-10T07:02:46.679Z,75.70
2019-04-10T07:03:21.350Z,75.60
2019-04-10T07:04:02.272Z,75.40
2019-04-10T07:04:43.057Z,75.10
2019-04-10T07:05:10.545Z,75.10
2019-04-10T07:06:00.433Z,75.20
2019-04-10T07:06:35.776Z,76.00
2019-04-10T07:07:06.319Z,75.50
2019-04-10T07:07:49.851Z,75.50
2019-04-10T07:08:16.471Z,75.60
2019-04-10T07:08:50.857Z,75.60
2019-04-10T07:09:26.560Z,75.70
2019-04-10T07:10:02.171Z,75.90
2019-04-10T07:10:49.161Z,76.00
2019-04-10T07:11:13.660Z,76.00
2019-04-10T07:11:53.493Z,76.00
2019-04-10T07:12:30.156Z,76.20
2019-04-10T07:13:06.303Z,76.30
2019-04-10T07:13:40.159Z,76.30
2019-04-10T07:14:14.716Z,76.30
2019-04-10T07:14:51.504Z,76.40
2019-04-10T07:15:25.761Z,76.80
2019-04-10T07:16:00.408Z,76.90
2019-04-10T07:16:35.725Z,77.00
2019-04-10T07:17:13.858Z,77.20
2019-04-10T07:17:47.376Z,77.40
2019-04-10T07:18:22.076Z,77.80
2019-04-10T07:18:58.444Z,77.90
2019-04-10T07:19:32.826Z,78.10
2019-04-10T07:20:07.913Z,78.20
2019-04-10T07:20:42.574Z,78.30
2019-04-10T07:21:17.236Z,78.30
2019-04-10T07:21:51.760Z,78.40
2019-04-10T07:22:26.901Z,78.50
2019-04-10T07:23:02.943Z,78.40
2019-04-10T07:23:38.635Z,78.00
2019-04-10T07:24:14.989Z,77.80
2019-04-10T07:24:51.820Z,78.10
2019-04-10T07:25:25.797Z,78.30
2019-04-10T07:26:00.374Z,78.30
2019-04-10T07:26:40.085Z,78.30
2019-04-10T07:27:11.934Z,78.30
2019-04-10T07:27:46.589Z,78.20
2019-04-10T07:28:21.529Z,78.10
2019-04-10T07:28:58.488Z,78.30
2019-04-10T07:29:32.415Z,78.30
2019-04-10T07:30:08.203Z,78.40
2019-04-10T07:30:43.542Z,78.20
2019-04-10T07:31:19.406Z,78.20
2019-04-10T07:31:54.971Z,77.70
2019-04-10T07:32:29.900Z,77.50
2019-04-10T07:33:05.492Z,77.50
2019-04-10T07:33:40.601Z,77.40
2019-04-10T07:34:15.345Z,77.20
2019-04-10T07:34:50.828Z,77.30
2019-04-10T07:35:25.771Z,77.30